Time;durP1;ratioP1;P1;durP2;ratioP2;P2;SDS_P1;SDS_P2;PMS_P1;PMS_P2;Temp;Humidity;BMP_temperature;BMP_pressure;BME280_temperature;BME280_humidity;BME280_pressure;Samples;Min_cycle;Max_cycle;Signal;HPM_P1;HPM_P2
2022/12/16 00:00:17;;;;;;;;;;;;;;;19.75;38.49;100602.59;5026541;28;4174;-61
2022/12/16 00:02:43;;;;;;;;;;;;;;;19.75;38.48;100596.84;5024122;28;4478;-61
2022/12/16 00:05:09;;;;;;;;;;;;;;;19.74;38.51;100598.22;5041151;28;3966;-61
2022/12/16 00:07:36;;;;;;;;;;;;;;;19.74;38.61;100606.84;5027332;28;4260;-62
2022/12/16 00:10:02;;;;;;;;;;;;;;;19.74;38.54;100610.44;5039391;28;4206;-61
2022/12/16 00:12:32;;;;;;;;;;;;;;;19.75;38.54;100608.34;5038959;28;4203;-61
2022/12/16 00:14:58;;;;;;;;;;;;;;;19.75;38.51;100605.47;5033238;28;5201;-61
2022/12/16 00:17:24;;;;;;;;;;;;;;;19.76;38.56;100598.31;5037840;28;4203;-61
2022/12/16 00:19:51;;;;;;;;;;;;;;;19.76;38.46;100601.94;5033012;28;5122;-61
2022/12/16 00:22:17;;;;;;;;;;;;;;;19.76;38.52;100609.81;5034533;28;5110;-61
2022/12/16 00:24:43;;;;;;;;;;;;;;;19.75;38.59;100609.06;5039205;28;4001;-62
2022/12/16 00:27:10;;;;;;;;;;;;;;;19.75;38.57;100609.06;5040412;28;4179;-61
2022/12/16 00:29:36;;;;;;;;;;;;;;;19.74;38.57;100616.19;5035181;28;4198;-61
2022/12/16 00:32:05;;;;;;;;;;;;;;;19.73;38.33;100608.25;5033743;28;4128;-61
2022/12/16 00:34:32;;;;;;;;;;;;;;;19.70;38.64;100601.66;5035172;28;4028;-61
2022/12/16 00:36:58;;;;;;;;;;;;;;;19.71;38.60;100613.91;5027259;28;4295;-61
2022/12/16 00:39:24;;;;;;;;;;;;;;;19.71;38.55;100611.03;5041574;28;4191;-62
2022/12/16 00:41:51;;;;;;;;;;;;;;;19.72;38.55;100612.50;5032323;28;5376;-61
2022/12/16 00:44:17;;;;;;;;;;;;;;;19.73;38.53;100620.47;5035994;28;4157;-62
2022/12/16 00:46:43;;;;;;;;;;;;;;;19.73;38.67;100631.22;5031477;28;5184;-61
2022/12/16 00:49:10;;;;;;;;;;;;;;;19.74;38.43;100629.81;5037931;28;4165;-61
2022/12/16 00:51:36;;;;;;;;;;;;;;;19.73;38.53;100634.84;5034804;28;4245;-62
2022/12/16 00:54:02;;;;;;;;;;;;;;;19.75;38.56;100639.94;5038502;28;4196;-61
2022/12/16 00:56:29;;;;;;;;;;;;;;;19.75;38.56;100637.81;5039271;28;4188;-61
2022/12/16 00:58:55;;;;;;;;;;;;;;;19.76;38.59;100638.53;5043410;28;4344;-61
2022/12/16 01:01:22;;;;;;;;;;;;;;;19.76;38.56;100639.28;5033257;28;4186;-61
2022/12/16 01:03:48;;;;;;;;;;;;;;;19.75;38.61;100637.06;5041845;28;5430;-61
2022/12/16 01:06:15;;;;;;;;;;;;;;;19.74;38.59;100626.94;5040360;28;5166;-61
2022/12/16 01:08:49;;;;;;;;;;;;;;;19.73;38.71;100628.34;5035779;28;4152;-61
2022/12/16 01:11:15;;;;;;;;;;;;;;;19.72;38.69;100626.84;5034172;28;4131;-61
2022/12/16 01:13:42;;;;;;;;;;;;;;;19.70;38.69;100635.38;5043298;28;4194;-62
2022/12/16 01:16:08;;;;;;;;;;;;;;;19.70;38.68;100635.38;5042847;28;3981;-61
2022/12/16 01:18:34;;;;;;;;;;;;;;;19.69;38.66;100636.78;5045047;28;4186;-64
2022/12/16 01:21:02;;;;;;;;;;;;;;;19.69;38.57;100634.66;5042820;28;5273;-61
2022/12/16 01:23:28;;;;;;;;;;;;;;;19.69;38.70;100633.91;5030707;28;5230;-61
2022/12/16 01:25:56;;;;;;;;;;;;;;;19.69;38.64;100631.03;5042403;28;5248;-62
2022/12/16 01:28:28;;;;;;;;;;;;;;;19.68;38.54;100633.16;5046275;28;4155;-61
2022/12/16 01:31:00;;;;;;;;;;;;;;;19.70;38.66;100638.25;5043998;28;4101;-62
2022/12/16 01:33:27;;;;;;;;;;;;;;;19.69;38.59;100639.66;5050431;28;4090;-61
2022/12/16 01:36:01;;;;;;;;;;;;;;;19.69;38.59;100636.78;5029306;28;4387;-61
2022/12/16 01:38:28;;;;;;;;;;;;;;;19.67;38.67;100638.13;5038607;28;4194;-61
2022/12/16 01:40:54;;;;;;;;;;;;;;;19.66;38.82;100633.06;5045666;28;6207;-61
2022/12/16 01:43:23;;;;;;;;;;;;;;;19.65;38.70;100622.94;5049882;28;4080;-61
2022/12/16 01:45:49;;;;;;;;;;;;;;;19.64;38.63;100618.59;5043360;28;4147;-61
2022/12/16 01:48:35;;;;;;;;;;;;;;;19.64;38.65;100624.34;5045358;28;5299;-61
2022/12/16 01:51:12;;;;;;;;;;;;;;;19.63;38.60;100623.59;5032101;28;4220;-61
2022/12/16 01:53:39;;;;;;;;;;;;;;;19.64;38.50;100630.81;5038215;28;5319;-61
2022/12/16 01:56:05;;;;;;;;;;;;;;;19.65;38.55;100635.19;5036034;28;4258;-61
2022/12/16 01:58:32;;;;;;;;;;;;;;;19.67;38.44;100623.03;5046820;28;4279;-61
2022/12/16 02:00:58;;;;;;;;;;;;;;;19.67;38.48;100631.66;5048147;28;4137;-61
2022/12/16 02:03:25;;;;;;;;;;;;;;;19.67;38.58;100628.78;5039319;28;4167;-61
2022/12/16 02:05:51;;;;;;;;;;;;;;;19.67;38.57;100632.38;5040681;28;5369;-61
2022/12/16 02:08:18;;;;;;;;;;;;;;;19.69;38.58;100633.91;5048555;28;4074;-61
2022/12/16 02:10:45;;;;;;;;;;;;;;;19.69;38.53;100636.78;5049111;28;4196;-61
2022/12/16 02:13:16;;;;;;;;;;;;;;;19.70;38.70;100635.38;5047463;28;4180;-61
2022/12/16 02:16:01;;;;;;;;;;;;;;;19.70;38.73;100626.75;5052927;28;6331;-61
2022/12/16 02:18:33;;;;;;;;;;;;;;;19.68;38.59;100627.41;5041055;28;4151;-61
2022/12/16 02:21:09;;;;;;;;;;;;;;;19.66;38.53;100630.91;5043697;28;4214;-61
2022/12/16 02:23:35;;;;;;;;;;;;;;;19.67;38.69;100631.66;5050199;28;4251;-63
2022/12/16 02:26:13;;;;;;;;;;;;;;;19.64;38.72;100627.94;5054458;28;4149;-61
2022/12/16 02:28:44;;;;;;;;;;;;;;;19.63;38.70;100632.22;5043801;28;4340;-61
2022/12/16 02:31:22;;;;;;;;;;;;;;;19.63;38.76;100626.47;5046907;28;5332;-61
2022/12/16 02:34:05;;;;;;;;;;;;;;;19.63;38.72;100626.47;5043825;28;4258;-61
2022/12/16 02:36:42;;;;;;;;;;;;;;;19.65;38.37;100632.31;5044069;28;4174;-61
2022/12/16 02:39:14;;;;;;;;;;;;;;;19.65;38.44;100622.94;5038503;28;4159;-61
2022/12/16 02:41:49;;;;;;;;;;;;;;;19.65;38.51;100635.19;5045481;28;5490;-61
2022/12/16 02:44:15;;;;;;;;;;;;;;;19.65;38.57;100625.81;5042080;28;4000;-61
2022/12/16 02:46:42;;;;;;;;;;;;;;;19.65;38.54;100622.94;5054907;28;4251;-61
2022/12/16 02:49:11;;;;;;;;;;;;;;;19.63;38.59;100623.59;5058253;28;4046;-61
2022/12/16 02:51:38;;;;;;;;;;;;;;;19.63;38.48;100620.72;5037762;28;4201;-62
2022/12/16 02:54:07;;;;;;;;;;;;;;;19.61;38.57;100623.50;5047226;28;4045;-61
2022/12/16 03:04:34;;;;;;;;;;;;;;;19.59;38.51;100609.06;5035924;28;4156;-61
2022/12/16 03:07:01;;;;;;;;;;;;;;;19.60;38.49;100613.41;5019342;28;4133;-61
2022/12/16 03:09:28;;;;;;;;;;;;;;;19.61;38.47;100602.66;5035100;28;4171;-61
2022/12/16 03:11:55;;;;;;;;;;;;;;;19.62;38.46;100610.63;5031324;28;4105;-61
2022/12/16 03:14:22;;;;;;;;;;;;;;;19.63;38.57;100609.25;5046218;28;4142;-61
2022/12/16 03:16:48;;;;;;;;;;;;;;;19.63;38.52;100614.97;5022718;28;4391;-61
2022/12/16 03:19:14;;;;;;;;;;;;;;;19.63;38.55;100614.97;5049425;28;6364;-61
2022/12/16 03:21:42;;;;;;;;;;;;;;;19.63;38.63;100614.97;5048388;28;5270;-61
2022/12/16 03:24:09;;;;;;;;;;;;;;;19.64;38.49;100621.47;5026110;28;5208;-61
2022/12/16 03:26:55;;;;;;;;;;;;;;;19.63;38.52;100614.97;5030978;28;4513;-61
2022/12/16 03:32:59;;;;;;;;;;;;;;;19.60;38.62;100616.25;5034704;28;4445;-61
2022/12/16 03:35:27;;;;;;;;;;;;;;;19.58;38.54;100610.44;5052346;28;5064;-61
2022/12/16 03:37:54;;;;;;;;;;;;;;;19.57;38.51;100611.81;5048037;28;5249;-61
2022/12/16 03:40:21;;;;;;;;;;;;;;;19.56;38.53;100610.34;5050514;28;4138;-61
2022/12/16 03:42:47;;;;;;;;;;;;;;;19.55;38.52;100606.00;5040020;28;4487;-61
2022/12/16 03:45:18;;;;;;;;;;;;;;;19.55;38.46;100602.38;5055036;28;4200;-61
2022/12/16 03:47:48;;;;;;;;;;;;;;;19.55;38.44;100600.25;5043003;28;4192;-61
2022/12/16 03:50:14;;;;;;;;;;;;;;;19.57;38.45;100594.59;5042053;28;4207;-63
2022/12/16 03:52:40;;;;;;;;;;;;;;;19.58;38.26;100598.19;5032111;28;5607;-61
2022/12/16 03:55:07;;;;;;;;;;;;;;;19.59;38.40;100591.81;5041479;28;4101;-61
2022/12/16 03:57:33;;;;;;;;;;;;;;;19.59;38.40;100608.31;5046111;28;4475;-61
2022/12/16 04:00:00;;;;;;;;;;;;;;;19.60;38.44;100599.03;5039260;28;4146;-61
2022/12/16 04:02:26;;;;;;;;;;;;;;;19.61;38.46;100588.31;5039550;28;4184;-60
2022/12/16 04:05:01;;;;;;;;;;;;;;;19.60;38.44;100599.03;5038241;28;5131;-61
2022/12/16 04:07:27;;;;;;;;;;;;;;;19.61;38.45;100597.66;5040658;28;4104;-61
2022/12/16 04:09:54;;;;;;;;;;;;;;;19.61;38.56;100599.78;5039283;28;5266;-60
2022/12/16 04:26:06;;;;;;;;;;;;;;;19.56;38.40;100616.09;5035758;28;5062;-61
2022/12/16 04:28:33;;;;;;;;;;;;;;;19.55;38.32;100614.59;5042317;28;3969;-61
2022/12/16 04:30:59;;;;;;;;;;;;;;;19.53;38.39;100608.75;5040025;28;4275;-61
